This is the latest recevied weather packets stored in our database for station/object HS2LXA-WX. If no packets are shown the sender has not sent any weather packets the latest 1 day(s).
| Time | Temp. | Humidity | Pressure | Rain* | Wind** | Luminosity | Snow |
|---|---|---|---|---|---|---|---|
| 1778062502 | 33.33° C | 68% | 1013.1 hPa | 0 mm | 0.89 m/s, 67° | - | - |
| 1778061903 | 33.33° C | 67% | 1013.2 hPa | 0 mm | 2.24 m/s, 112° | - | - |
| 1778061300 | 33.89° C | 66% | 1013.1 hPa | 0 mm | 7.15 m/s, 225° | - | - |
| 1778060407 | 33.89° C | 67% | 1013.1 hPa | 0 mm | 1.79 m/s, 112° | - | - |
| 1778059436 | 33.89° C | 69% | 1013.1 hPa | 0 mm | 1.34 m/s, 90° | - | - |
| 1778058380 | 33.89° C | 68% | 1013.2 hPa | 0 mm | 1.79 m/s, 67° | - | - |
| 1778057432 | 33.89° C | 70% | 1013.1 hPa | 0 mm | 2.68 m/s, 0° | - | - |
| 1778056831 | 33.89° C | 70% | 1013.1 hPa | 0 mm | 1.79 m/s, 67° | - | - |
| 1778056228 | 33.89° C | 70% | 1013.2 hPa | 0 mm | 4.02 m/s, 202° | - | - |
| 1778055197 | 34.44° C | 66% | 1013.1 hPa | 0 mm | 10.28 m/s, 202° | - | - |
| 1778054344 | 33.89° C | 68% | 1013.1 hPa | 0 mm | 5.36 m/s, 112° | - | - |
| 1778053744 | 33.89° C | 67% | 1013.2 hPa | 0 mm | 12.07 m/s, 315° | - | - |
| 1778053144 | 33.89° C | 68% | 1013.1 hPa | 0 mm | 4.02 m/s, 225° | - | - |
| 1778052424 | 33.89° C | 69% | 1013.1 hPa | 0 mm | 5.36 m/s, 202° | - | - |
| 1778051823 | 33.89° C | 70% | 1013.2 hPa | 0 mm | 4.02 m/s, 225° | - | - |
| 1778051224 | 33.89° C | 69% | 1013.1 hPa | 0 mm | 1.79 m/s, 202° | - | - |
| 1778050623 | 33.89° C | 70% | 1013.1 hPa | 0 mm | 5.81 m/s, 67° | - | - |
| 1778049268 | 33.33° C | 75% | 1013.2 hPa | 0 mm | 1.79 m/s, 0° | - | - |
| 1778048225 | 33.33° C | 79% | 1013.1 hPa | 0 mm | 3.58 m/s, 225° | - | - |
| 1778047024 | 32.78° C | 77% | 1013.2 hPa | 0 mm | 1.34 m/s, 112° | - | - |
| 1778046131 | 32.78° C | 78% | 1013.1 hPa | 0 mm | 12.07 m/s, 225° | - | - |
| 1778045531 | 32.78° C | 78% | 1013.1 hPa | 0 mm | 8.49 m/s, 225° | - | - |
| 1778044932 | 32.78° C | 80% | 1013.1 hPa | 0 mm | 1.34 m/s, 67° | - | - |
| 1778044330 | 32.78° C | 80% | 1013.2 hPa | 0 mm | 5.81 m/s, 67° | - | - |
| 1778043730 | 32.78° C | 80% | 1013.1 hPa | 0 mm | 2.68 m/s, 225° | - | - |
* Rain latest hour (hover to see other rain measurements)
** Current wind speed in m/s (hover to see current wind gust speed)